createdAt,value
2018-08-30T00:00:19.489Z,1012.26
2018-08-30T00:01:19.442Z,1012.27
2018-08-30T00:02:19.397Z,1012.33
2018-08-30T00:03:19.349Z,1012.31
2018-08-30T00:04:19.304Z,1012.31
2018-08-30T00:05:19.271Z,1012.30
2018-08-30T00:06:19.245Z,1012.34
2018-08-30T00:07:19.181Z,1012.41
2018-08-30T00:08:19.137Z,1012.39
2018-08-30T00:09:19.095Z,1012.40
2018-08-30T00:10:19.053Z,1012.39
2018-08-30T00:11:19.013Z,1012.43
2018-08-30T00:12:18.977Z,1012.43
2018-08-30T00:13:18.931Z,1012.42
2018-08-30T00:14:18.888Z,1012.42
2018-08-30T00:15:18.843Z,1012.44
2018-08-30T00:16:18.801Z,1012.49
2018-08-30T00:17:18.757Z,1012.50
2018-08-30T00:18:18.718Z,1012.45
2018-08-30T00:19:18.677Z,1012.50
2018-08-30T00:20:18.632Z,1012.50
2018-08-30T00:21:18.588Z,1012.49
2018-08-30T00:22:18.556Z,1012.50
2018-08-30T00:23:18.507Z,1012.50
2018-08-30T00:24:18.469Z,1012.55
2018-08-30T00:25:18.422Z,1012.55
2018-08-30T00:26:18.381Z,1012.60
2018-08-30T00:27:18.346Z,1012.56
2018-08-30T00:28:18.298Z,1012.53
2018-08-30T00:29:18.250Z,1012.63
2018-08-30T00:30:18.209Z,1012.62
2018-08-30T00:31:18.171Z,1012.69
2018-08-30T00:32:18.129Z,1012.67
2018-08-30T00:33:18.084Z,1012.69
2018-08-30T00:34:18.043Z,1012.73
2018-08-30T00:35:18.000Z,1012.71
2018-08-30T00:36:17.955Z,1012.76
2018-08-30T00:37:17.920Z,1012.77
2018-08-30T00:38:17.877Z,1012.81
2018-08-30T00:39:17.838Z,1012.83
2018-08-30T00:40:17.790Z,1012.89
2018-08-30T00:41:17.784Z,1012.87
2018-08-30T00:42:17.706Z,1012.88
2018-08-30T00:43:17.665Z,1012.87
2018-08-30T00:44:17.619Z,1012.90
2018-08-30T00:45:17.581Z,1012.95
2018-08-30T00:46:17.536Z,1013.01
2018-08-30T00:47:17.501Z,1012.99
2018-08-30T00:48:17.454Z,1012.99
2018-08-30T00:49:17.411Z,1012.97
2018-08-30T00:50:17.369Z,1013.03
2018-08-30T00:51:17.327Z,1013.03
2018-08-30T00:52:17.285Z,1013.07
2018-08-30T00:53:17.237Z,1013.10
2018-08-30T00:54:17.202Z,1013.08
2018-08-30T00:55:17.157Z,1013.11
2018-08-30T00:56:17.116Z,1013.14
2018-08-30T00:57:17.073Z,1013.13
2018-08-30T00:58:17.020Z,1013.17
2018-08-30T00:59:16.987Z,1013.16
2018-08-30T01:00:16.948Z,1013.17
2018-08-30T01:01:16.904Z,1013.19
2018-08-30T01:02:16.869Z,1013.23
2018-08-30T01:03:16.819Z,1013.21
2018-08-30T01:04:16.775Z,1013.27
2018-08-30T01:05:16.733Z,1013.25
2018-08-30T01:06:16.691Z,1013.28
2018-08-30T01:07:16.650Z,1013.24
2018-08-30T01:08:16.609Z,1013.26
2018-08-30T01:09:16.570Z,1013.26
2018-08-30T01:10:16.526Z,1013.29
2018-08-30T01:11:16.481Z,1013.29
2018-08-30T01:12:16.437Z,1013.28
2018-08-30T01:13:16.399Z,1013.29
2018-08-30T01:14:16.357Z,1013.30
2018-08-30T01:15:16.315Z,1013.33
2018-08-30T01:16:16.274Z,1013.28
2018-08-30T01:17:16.219Z,1013.32
2018-08-30T01:18:16.187Z,1013.33
2018-08-30T01:19:16.152Z,1013.31
2018-08-30T01:20:16.105Z,1013.31
2018-08-30T01:21:16.060Z,1013.31
2018-08-30T01:22:16.010Z,1013.31
2018-08-30T01:23:15.977Z,1013.34
2018-08-30T01:24:15.936Z,1013.33
2018-08-30T01:25:15.891Z,1013.35
2018-08-30T01:26:15.851Z,1013.38
2018-08-30T01:27:15.808Z,1013.36
2018-08-30T01:28:15.767Z,1013.37
2018-08-30T01:29:15.722Z,1013.40
2018-08-30T01:30:15.684Z,1013.39
2018-08-30T01:31:15.641Z,1013.44
2018-08-30T01:32:15.597Z,1013.41
2018-08-30T01:33:15.555Z,1013.42
2018-08-30T01:34:15.510Z,1013.43
2018-08-30T01:35:15.473Z,1013.44
2018-08-30T01:36:15.431Z,1013.45
2018-08-30T01:37:15.389Z,1013.42
2018-08-30T01:38:15.345Z,1013.43
2018-08-30T01:39:15.311Z,1013.43
2018-08-30T01:40:15.265Z,1013.43
2018-08-30T01:41:15.216Z,1013.45
2018-08-30T01:42:15.175Z,1013.42
2018-08-30T01:43:15.136Z,1013.44
2018-08-30T01:44:15.091Z,1013.47
2018-08-30T01:45:15.046Z,1013.46
2018-08-30T01:46:15.008Z,1013.44
2018-08-30T01:47:14.968Z,1013.52
2018-08-30T01:48:14.928Z,1013.50
2018-08-30T01:49:14.882Z,1013.50
2018-08-30T01:50:14.837Z,1013.56
2018-08-30T01:51:14.796Z,1013.59
2018-08-30T01:52:14.752Z,1013.59
2018-08-30T01:53:14.709Z,1013.54
2018-08-30T01:54:14.674Z,1013.57
2018-08-30T01:55:14.626Z,1013.57
2018-08-30T01:56:14.591Z,1013.58
2018-08-30T01:57:14.546Z,1013.59
2018-08-30T01:58:14.498Z,1013.61
2018-08-30T01:59:14.460Z,1013.61
2018-08-30T02:00:14.413Z,1013.59
2018-08-30T02:01:14.372Z,1013.60
2018-08-30T02:02:14.326Z,1013.59
2018-08-30T02:03:14.285Z,1013.60
2018-08-30T02:04:14.276Z,1013.64
2018-08-30T02:05:14.206Z,1013.61
2018-08-30T02:06:14.161Z,1013.69
2018-08-30T02:07:14.119Z,1013.63
2018-08-30T02:08:14.076Z,1013.63
2018-08-30T02:09:14.027Z,1013.68
2018-08-30T02:10:13.999Z,1013.69
2018-08-30T02:11:13.954Z,1013.67
2018-08-30T02:12:13.912Z,1013.69
2018-08-30T02:13:13.866Z,1013.69
2018-08-30T02:14:13.829Z,1013.68
2018-08-30T02:15:13.785Z,1013.67
2018-08-30T02:16:13.746Z,1013.70
2018-08-30T02:17:13.698Z,1013.65
2018-08-30T02:18:13.661Z,1013.67
2018-08-30T02:19:13.607Z,1013.70
2018-08-30T02:20:13.575Z,1013.72
2018-08-30T02:21:13.536Z,1013.74
2018-08-30T02:22:13.491Z,1013.75
2018-08-30T02:23:13.447Z,1013.78
2018-08-30T02:24:13.402Z,1013.71
2018-08-30T02:25:13.364Z,1013.75
2018-08-30T02:26:13.326Z,1013.72
2018-08-30T02:27:13.281Z,1013.71
2018-08-30T02:28:13.235Z,1013.73
2018-08-30T02:29:13.194Z,1013.75
2018-08-30T02:30:13.157Z,1013.76
2018-08-30T02:31:13.108Z,1013.75
2018-08-30T02:32:13.066Z,1013.78
2018-08-30T02:33:13.026Z,1013.80
2018-08-30T02:34:12.981Z,1013.82
2018-08-30T02:35:12.943Z,1013.78
2018-08-30T02:36:12.901Z,1013.78
2018-08-30T02:37:12.865Z,1013.79
2018-08-30T02:38:12.813Z,1013.84
2018-08-30T02:39:12.771Z,1013.81
2018-08-30T02:40:12.728Z,1013.83
2018-08-30T02:41:12.696Z,1013.82
2018-08-30T02:42:12.640Z,1013.80
2018-08-30T02:43:12.602Z,1013.83
2018-08-30T02:44:12.560Z,1013.90
2018-08-30T02:45:12.519Z,1013.86
2018-08-30T02:46:12.477Z,1013.86
2018-08-30T02:47:12.436Z,1013.85
2018-08-30T02:48:12.394Z,1013.85
2018-08-30T02:49:12.355Z,1013.91
2018-08-30T02:50:12.310Z,1013.87
2018-08-30T02:51:12.265Z,1013.87
2018-08-30T02:52:12.227Z,1013.91
2018-08-30T02:53:12.184Z,1013.90
2018-08-30T02:54:12.143Z,1013.87
2018-08-30T02:55:12.099Z,1013.89
2018-08-30T02:56:12.051Z,1013.89
2018-08-30T02:57:12.014Z,1013.89
2018-08-30T02:58:11.965Z,1013.91
2018-08-30T02:59:11.918Z,1013.86
2018-08-30T03:00:11.890Z,1013.86
2018-08-30T03:01:11.842Z,1013.86
2018-08-30T03:02:11.804Z,1013.90
2018-08-30T03:03:11.758Z,1013.90
2018-08-30T03:04:11.723Z,1013.92
2018-08-30T03:05:11.672Z,1013.94
2018-08-30T03:06:11.634Z,1013.94
2018-08-30T03:07:11.587Z,1013.92
2018-08-30T03:08:11.551Z,1013.99
2018-08-30T03:09:11.511Z,1013.95
2018-08-30T03:10:11.468Z,1014.00
2018-08-30T03:11:11.420Z,1014.02
2018-08-30T03:12:11.378Z,1014.01
2018-08-30T03:13:11.333Z,1014.03
2018-08-30T03:14:11.295Z,1014.07
2018-08-30T03:15:11.254Z,1014.08
2018-08-30T03:16:11.210Z,1014.05
2018-08-30T03:17:11.188Z,1014.07
2018-08-30T03:18:11.124Z,1014.07
2018-08-30T03:19:11.098Z,1014.07
2018-08-30T03:20:11.066Z,1014.11
2018-08-30T03:21:11.000Z,1014.07
2018-08-30T03:22:10.955Z,1014.04
2018-08-30T03:23:10.919Z,1014.04
2018-08-30T03:24:10.872Z,1014.03
2018-08-30T03:25:10.832Z,1014.05
2018-08-30T03:26:10.787Z,1014.04
2018-08-30T03:27:10.749Z,1014.09
2018-08-30T03:28:10.701Z,1014.10
2018-08-30T03:29:10.663Z,1014.13
2018-08-30T03:30:10.692Z,1014.13
2018-08-30T03:31:10.575Z,1014.13
2018-08-30T03:32:10.524Z,1014.12
2018-08-30T03:33:10.498Z,1014.15
2018-08-30T03:34:10.445Z,1014.16
2018-08-30T03:35:10.411Z,1014.18
2018-08-30T03:36:10.365Z,1014.18
2018-08-30T03:37:10.321Z,1014.20
2018-08-30T03:38:10.282Z,1014.19
2018-08-30T03:39:10.237Z,1014.21
2018-08-30T03:40:10.195Z,1014.24
2018-08-30T03:41:10.170Z,1014.21
2018-08-30T03:42:10.125Z,1014.25
2018-08-30T03:43:10.070Z,1014.23
2018-08-30T03:44:10.041Z,1014.21
2018-08-30T03:45:09.983Z,1014.25
2018-08-30T03:46:09.955Z,1014.25
2018-08-30T03:47:09.901Z,1014.28
2018-08-30T03:48:09.865Z,1014.23
2018-08-30T03:49:09.814Z,1014.27
2018-08-30T03:50:09.772Z,1014.26
2018-08-30T03:51:09.731Z,1014.25
2018-08-30T03:52:09.689Z,1014.24
2018-08-30T03:53:09.651Z,1014.23
2018-08-30T03:54:09.604Z,1014.29
2018-08-30T03:55:09.597Z,1014.28
2018-08-30T03:56:09.534Z,1014.28
2018-08-30T03:57:09.479Z,1014.28
2018-08-30T03:58:09.433Z,1014.28
2018-08-30T03:59:09.394Z,1014.26
2018-08-30T04:00:09.354Z,1014.28
2018-08-30T04:01:09.336Z,1014.30
2018-08-30T04:02:09.266Z,1014.33
2018-08-30T04:03:09.228Z,1014.31
2018-08-30T04:04:09.211Z,1014.31
2018-08-30T04:05:09.150Z,1014.37
2018-08-30T04:06:09.100Z,1014.42
2018-08-30T04:07:09.062Z,1014.41
2018-08-30T04:08:09.014Z,1014.41
2018-08-30T04:09:08.963Z,1014.42
2018-08-30T04:10:08.934Z,1014.43
2018-08-30T04:11:08.889Z,1014.44
2018-08-30T04:12:08.848Z,1014.44
2018-08-30T04:13:08.807Z,1014.43
2018-08-30T04:14:08.771Z,1014.39
2018-08-30T04:15:08.717Z,1014.40
2018-08-30T04:16:08.676Z,1014.42
2018-08-30T04:17:08.638Z,1014.40
2018-08-30T04:18:08.587Z,1014.46
2018-08-30T04:19:08.554Z,1014.45
2018-08-30T04:20:08.507Z,1014.45
2018-08-30T04:21:08.465Z,1014.46
2018-08-30T04:22:08.481Z,1014.48
2018-08-30T04:23:08.384Z,1014.49
2018-08-30T04:24:08.339Z,1014.50
2018-08-30T04:25:08.295Z,1014.52
2018-08-30T04:26:08.253Z,1014.52
2018-08-30T04:27:08.328Z,1014.53
2018-08-30T04:28:08.172Z,1014.55
2018-08-30T04:29:08.131Z,1014.53
2018-08-30T04:30:08.085Z,1014.58
2018-08-30T04:31:08.042Z,1014.54
2018-08-30T04:32:08.001Z,1014.56
2018-08-30T04:33:07.962Z,1014.57
2018-08-30T04:34:07.912Z,1014.60
2018-08-30T04:35:07.879Z,1014.60
2018-08-30T04:36:07.831Z,1014.65
2018-08-30T04:37:07.788Z,1014.66
2018-08-30T04:38:07.747Z,1014.67
2018-08-30T04:39:07.702Z,1014.66
2018-08-30T04:40:07.665Z,1014.63
2018-08-30T04:41:07.622Z,1014.68
2018-08-30T04:42:07.581Z,1014.65
2018-08-30T04:43:07.533Z,1014.71
2018-08-30T04:44:07.500Z,1014.71
2018-08-30T04:45:07.459Z,1014.72
2018-08-30T04:46:07.411Z,1014.75
2018-08-30T04:47:07.366Z,1014.72
2018-08-30T04:48:07.321Z,1014.73
2018-08-30T04:49:07.289Z,1014.74
2018-08-30T04:50:07.256Z,1014.76
2018-08-30T04:51:07.198Z,1014.73
2018-08-30T04:52:07.157Z,1014.73
2018-08-30T04:53:07.115Z,1014.74
2018-08-30T04:54:07.084Z,1014.76
2018-08-30T04:55:07.030Z,1014.78
2018-08-30T04:56:06.990Z,1014.78
2018-08-30T04:57:06.952Z,1014.83
2018-08-30T04:58:06.901Z,1014.82
2018-08-30T04:59:06.866Z,1014.82
2018-08-30T05:00:06.821Z,1014.84
2018-08-30T05:01:06.777Z,1014.86
2018-08-30T05:02:06.733Z,1014.86
2018-08-30T05:03:06.693Z,1014.90
2018-08-30T05:04:06.649Z,1014.87
2018-08-30T05:05:06.607Z,1014.87
2018-08-30T05:06:06.553Z,1014.91
2018-08-30T05:07:06.537Z,1014.93
2018-08-30T05:08:06.470Z,1014.95
2018-08-30T05:09:06.442Z,1014.97
2018-08-30T05:10:06.470Z,1014.99
2018-08-30T05:11:06.356Z,1014.95
2018-08-30T05:12:06.316Z,1014.99
2018-08-30T05:13:06.267Z,1014.98
2018-08-30T05:14:06.225Z,1015.01
2018-08-30T05:15:06.184Z,1015.00
2018-08-30T05:16:06.144Z,1014.99
2018-08-30T05:17:06.098Z,1015.00
2018-08-30T05:18:06.061Z,1014.98
2018-08-30T05:19:06.017Z,1014.99
2018-08-30T05:20:05.972Z,1015.01
2018-08-30T05:21:05.927Z,1015.01
2018-08-30T05:22:05.896Z,1014.98
2018-08-30T05:23:05.888Z,1014.99
2018-08-30T05:24:05.807Z,1014.98
2018-08-30T05:25:05.765Z,1015.00
2018-08-30T05:26:05.721Z,1014.99
2018-08-30T05:27:05.679Z,1014.99
2018-08-30T05:28:05.637Z,1014.99
2018-08-30T05:29:05.590Z,1014.99
2018-08-30T05:30:05.554Z,1015.00
2018-08-30T05:31:05.506Z,1014.98
2018-08-30T05:32:05.464Z,1014.99
2018-08-30T05:33:05.422Z,1015.02
2018-08-30T05:34:05.389Z,1015.00
2018-08-30T05:35:05.354Z,1015.01
2018-08-30T05:36:05.306Z,1014.99
2018-08-30T05:37:05.255Z,1015.01
2018-08-30T05:38:05.210Z,1015.05
2018-08-30T05:39:05.171Z,1015.06
2018-08-30T05:40:05.130Z,1015.08
2018-08-30T05:41:05.082Z,1015.10
2018-08-30T05:42:05.043Z,1015.07
2018-08-30T05:43:04.992Z,1015.12
2018-08-30T05:44:04.960Z,1015.13
2018-08-30T05:45:04.908Z,1015.15
2018-08-30T05:46:04.887Z,1015.14
2018-08-30T05:47:04.832Z,1015.16
2018-08-30T05:48:04.786Z,1015.16
2018-08-30T05:49:04.750Z,1015.16
2018-08-30T05:50:04.715Z,1015.17
2018-08-30T05:51:04.670Z,1015.19
2018-08-30T05:52:04.617Z,1015.21
2018-08-30T05:53:04.579Z,1015.22
2018-08-30T05:54:04.537Z,1015.23
2018-08-30T05:55:04.498Z,1015.29
2018-08-30T05:56:04.448Z,1015.28
2018-08-30T05:57:04.409Z,1015.28
2018-08-30T05:58:04.371Z,1015.29
2018-08-30T05:59:04.329Z,1015.29
2018-08-30T06:00:04.285Z,1015.28
2018-08-30T06:01:04.244Z,1015.31
2018-08-30T06:02:04.198Z,1015.30
2018-08-30T06:03:04.157Z,1015.30
2018-08-30T06:04:04.119Z,1015.32
2018-08-30T06:05:04.070Z,1015.30
2018-08-30T06:06:04.027Z,1015.31
2018-08-30T06:07:03.985Z,1015.28
2018-08-30T06:08:03.945Z,1015.28
2018-08-30T06:09:03.902Z,1015.26
2018-08-30T06:10:03.864Z,1015.29
2018-08-30T06:11:03.821Z,1015.31
2018-08-30T06:12:03.791Z,1015.34
2018-08-30T06:13:03.773Z,1015.30
2018-08-30T06:14:03.698Z,1015.35
2018-08-30T06:15:03.717Z,1015.34
2018-08-30T06:16:03.604Z,1015.35
2018-08-30T06:17:03.562Z,1015.37
2018-08-30T06:18:03.524Z,1015.38
2018-08-30T06:19:03.473Z,1015.39
2018-08-30T06:20:03.436Z,1015.41
2018-08-30T06:21:03.394Z,1015.40
2018-08-30T06:22:03.349Z,1015.44
2018-08-30T06:23:03.309Z,1015.43
2018-08-30T06:24:03.286Z,1015.40
2018-08-30T06:25:03.273Z,1015.44
2018-08-30T06:26:03.182Z,1015.48
2018-08-30T06:27:03.138Z,1015.49
2018-08-30T06:28:03.099Z,1015.50
2018-08-30T06:29:03.055Z,1015.52
2018-08-30T06:30:03.006Z,1015.54
2018-08-30T06:31:02.975Z,1015.58
2018-08-30T06:32:02.929Z,1015.58
2018-08-30T06:33:02.884Z,1015.60
2018-08-30T06:34:02.854Z,1015.63
2018-08-30T06:35:02.820Z,1015.64
2018-08-30T06:36:02.759Z,1015.65
2018-08-30T06:37:02.727Z,1015.64
2018-08-30T06:38:02.675Z,1015.66
2018-08-30T06:39:02.637Z,1015.65
2018-08-30T06:40:02.592Z,1015.65
2018-08-30T06:41:02.554Z,1015.63
2018-08-30T06:42:02.506Z,1015.65
2018-08-30T06:43:02.461Z,1015.60
2018-08-30T06:44:02.426Z,1015.62
2018-08-30T06:45:02.380Z,1015.62
2018-08-30T06:46:02.333Z,1015.68
2018-08-30T06:47:02.293Z,1015.67
2018-08-30T06:48:02.254Z,1015.67
2018-08-30T06:49:02.254Z,1015.68
2018-08-30T06:50:02.166Z,1015.68
2018-08-30T06:51:02.130Z,1015.71
2018-08-30T06:52:02.083Z,1015.68
2018-08-30T06:53:02.042Z,1015.66
2018-08-30T06:54:01.999Z,1015.71
2018-08-30T06:55:01.952Z,1015.70
2018-08-30T06:56:01.917Z,1015.68
2018-08-30T06:57:01.878Z,1015.67
2018-08-30T06:58:01.824Z,1015.71
2018-08-30T06:59:01.783Z,1015.71
2018-08-30T07:00:01.746Z,1015.79
2018-08-30T07:01:01.700Z,1015.73
2018-08-30T07:02:01.672Z,1015.73
2018-08-30T07:03:01.615Z,1015.74
2018-08-30T07:04:01.585Z,1015.73
2018-08-30T07:05:01.538Z,1015.73
2018-08-30T07:06:01.595Z,1015.77
2018-08-30T07:07:01.477Z,1015.84
2018-08-30T07:08:01.419Z,1015.79
2018-08-30T07:09:01.360Z,1015.89
2018-08-30T07:10:01.317Z,1015.86
2018-08-30T07:11:01.279Z,1015.89
2018-08-30T07:12:01.237Z,1015.92
2018-08-30T07:13:01.243Z,1015.87
2018-08-30T07:14:01.150Z,1015.93
2018-08-30T07:15:01.187Z,1015.98
2018-08-30T07:16:01.064Z,1015.97
2018-08-30T07:17:01.023Z,1015.95
2018-08-30T07:18:00.976Z,1015.96
2018-08-30T07:19:00.962Z,1015.97
2018-08-30T07:20:00.985Z,1015.99
2018-08-30T07:21:00.883Z,1015.97
2018-08-30T07:22:00.812Z,1016.01
2018-08-30T07:23:00.770Z,1015.98
2018-08-30T07:24:00.728Z,1016.01
2018-08-30T07:25:00.684Z,1016.00
2018-08-30T07:26:00.641Z,1016.00
2018-08-30T07:27:00.609Z,1016.05
2018-08-30T07:28:00.578Z,1016.05
2018-08-30T07:29:00.528Z,1016.11
2018-08-30T07:30:00.482Z,1016.09
2018-08-30T07:31:00.433Z,1016.08
2018-08-30T07:32:00.389Z,1016.12
2018-08-30T07:33:00.353Z,1016.17
2018-08-30T07:34:00.321Z,1016.14
2018-08-30T07:35:00.347Z,1016.16
2018-08-30T07:36:00.222Z,1016.15
2018-08-30T07:37:00.226Z,1016.13
2018-08-30T07:38:00.142Z,1016.13
2018-08-30T07:39:00.094Z,1016.18
2018-08-30T07:40:00.045Z,1016.19
2018-08-30T07:41:00.009Z,1016.14
2018-08-30T07:41:59.958Z,1016.14
2018-08-30T07:42:59.920Z,1016.15
2018-08-30T07:43:59.961Z,1016.14
2018-08-30T07:44:59.840Z,1016.15
2018-08-30T07:45:59.796Z,1016.21
2018-08-30T07:46:59.754Z,1016.24
2018-08-30T07:47:59.715Z,1016.26
2018-08-30T07:48:59.672Z,1016.28
2018-08-30T07:49:59.626Z,1016.32
2018-08-30T07:50:59.617Z,1016.34
2018-08-30T07:51:59.551Z,1016.38
2018-08-30T07:52:59.501Z,1016.35
2018-08-30T07:53:59.456Z,1016.37
2018-08-30T07:54:59.415Z,1016.29
2018-08-30T07:55:59.373Z,1016.38
2018-08-30T07:56:59.333Z,1016.36
2018-08-30T07:57:59.290Z,1016.39
2018-08-30T07:58:59.247Z,1016.39
2018-08-30T07:59:59.220Z,1016.39
2018-08-30T08:00:59.154Z,1016.36
2018-08-30T08:01:59.121Z,1016.32
2018-08-30T08:02:59.074Z,1016.34
2018-08-30T08:03:59.033Z,1016.41
2018-08-30T08:04:58.994Z,1016.43
2018-08-30T08:05:59.013Z,1016.39
2018-08-30T08:06:58.911Z,1016.43
2018-08-30T08:07:58.863Z,1016.41
2018-08-30T08:08:58.827Z,1016.48
2018-08-30T08:09:58.779Z,1016.50
2018-08-30T08:10:58.734Z,1016.50
2018-08-30T08:11:58.769Z,1016.50
2018-08-30T08:12:58.652Z,1016.50
2018-08-30T08:13:58.617Z,1016.53
2018-08-30T08:14:58.566Z,1016.56
2018-08-30T08:15:58.526Z,1016.56
2018-08-30T08:16:58.483Z,1016.62
2018-08-30T08:17:58.447Z,1016.56
2018-08-30T08:18:58.435Z,1016.56
2018-08-30T08:19:58.357Z,1016.61
2018-08-30T08:20:58.312Z,1016.61
2018-08-30T08:21:58.268Z,1016.59
2018-08-30T08:22:58.228Z,1016.63
2018-08-30T08:23:58.189Z,1016.63
2018-08-30T08:24:58.145Z,1016.64
2018-08-30T08:25:58.100Z,1016.63
2018-08-30T08:26:58.065Z,1016.64
2018-08-30T08:27:58.018Z,1016.62
2018-08-30T08:28:57.978Z,1016.60
2018-08-30T08:29:57.948Z,1016.64
2018-08-30T08:30:57.892Z,1016.67
2018-08-30T08:31:57.854Z,1016.65
2018-08-30T08:32:57.806Z,1016.67
2018-08-30T08:33:57.767Z,1016.67
2018-08-30T08:34:57.719Z,1016.68
2018-08-30T08:35:57.671Z,1016.60
2018-08-30T08:36:57.641Z,1016.67
2018-08-30T08:37:57.593Z,1016.63
2018-08-30T08:38:57.548Z,1016.65
2018-08-30T08:39:57.513Z,1016.65
2018-08-30T08:40:57.468Z,1016.71
2018-08-30T08:41:57.420Z,1016.72
2018-08-30T08:42:57.382Z,1016.72
2018-08-30T08:43:57.341Z,1016.73
2018-08-30T08:44:57.296Z,1016.68
2018-08-30T08:45:57.259Z,1016.70
2018-08-30T08:46:57.216Z,1016.69
2018-08-30T08:47:57.181Z,1016.71
2018-08-30T08:48:57.126Z,1016.69
2018-08-30T08:49:57.088Z,1016.69
2018-08-30T08:50:57.056Z,1016.75
2018-08-30T08:51:57.015Z,1016.75
2018-08-30T08:52:56.962Z,1016.72
2018-08-30T08:53:56.918Z,1016.74
2018-08-30T08:54:56.871Z,1016.73
2018-08-30T08:55:56.831Z,1016.79
2018-08-30T08:56:56.792Z,1016.85
2018-08-30T08:57:56.748Z,1016.82
2018-08-30T08:58:56.869Z,1016.87
2018-08-30T08:59:56.662Z,1016.83
2018-08-30T09:00:56.617Z,1016.83
2018-08-30T09:01:56.583Z,1016.88
2018-08-30T09:02:56.558Z,1016.81
2018-08-30T09:03:56.502Z,1016.84
2018-08-30T09:04:56.448Z,1016.85
2018-08-30T09:05:56.408Z,1016.82
2018-08-30T09:06:56.367Z,1016.81
2018-08-30T09:07:56.352Z,1016.85
2018-08-30T09:08:56.283Z,1016.81
2018-08-30T09:09:56.240Z,1016.82
2018-08-30T09:10:56.195Z,1016.84
2018-08-30T09:11:56.154Z,1016.87
2018-08-30T09:12:56.109Z,1016.85
2018-08-30T09:13:56.076Z,1016.86
2018-08-30T09:14:56.028Z,1016.89
2018-08-30T09:15:55.986Z,1016.82
2018-08-30T09:16:55.941Z,1016.84
2018-08-30T09:17:55.899Z,1016.85
2018-08-30T09:18:55.861Z,1016.82
2018-08-30T09:19:55.816Z,1016.87
2018-08-30T09:20:55.780Z,1016.86
2018-08-30T09:21:55.730Z,1016.86
2018-08-30T09:22:55.706Z,1016.84
2018-08-30T09:23:55.651Z,1016.85
2018-08-30T09:24:55.608Z,1016.79
2018-08-30T09:25:55.560Z,1016.85
2018-08-30T09:26:55.572Z,1016.81
2018-08-30T09:27:55.467Z,1016.81
2018-08-30T09:28:55.538Z,1016.82
2018-08-30T09:29:55.393Z,1016.81
2018-08-30T09:30:55.381Z,1016.87
2018-08-30T09:31:55.316Z,1016.88
2018-08-30T09:32:55.271Z,1016.90
2018-08-30T09:33:55.255Z,1016.86
2018-08-30T09:34:55.194Z,1016.91
2018-08-30T09:35:55.148Z,1016.86
2018-08-30T09:36:55.097Z,1016.89
2018-08-30T09:37:55.056Z,1016.94
2018-08-30T09:38:55.018Z,1016.93
2018-08-30T09:39:54.966Z,1016.89
2018-08-30T09:40:54.922Z,1016.92
2018-08-30T09:41:54.883Z,1016.84
2018-08-30T09:42:54.839Z,1016.85
2018-08-30T09:43:54.882Z,1016.89
2018-08-30T09:44:54.755Z,1016.87
2018-08-30T09:45:54.716Z,1016.88
2018-08-30T09:46:54.675Z,1016.89
2018-08-30T09:47:54.631Z,1016.85
2018-08-30T09:48:54.593Z,1016.95
2018-08-30T09:49:54.613Z,1016.90
2018-08-30T09:50:54.505Z,1016.90
2018-08-30T09:51:54.464Z,1016.94
2018-08-30T09:52:54.418Z,1016.89
2018-08-30T09:53:54.376Z,1016.92
2018-08-30T09:54:54.325Z,1016.88
2018-08-30T09:55:54.299Z,1016.92
2018-08-30T09:56:54.321Z,1016.91
2018-08-30T09:57:54.211Z,1016.91
2018-08-30T09:58:54.166Z,1016.87
2018-08-30T09:59:54.121Z,1016.88
2018-08-30T10:00:54.076Z,1016.92
2018-08-30T10:01:54.037Z,1016.85
2018-08-30T10:02:54.002Z,1016.91
2018-08-30T10:03:54.020Z,1016.89
2018-08-30T10:04:53.936Z,1016.92
2018-08-30T10:05:53.855Z,1016.88
2018-08-30T10:06:53.824Z,1016.93
2018-08-30T10:07:53.782Z,1016.88
2018-08-30T10:08:53.740Z,1016.87
2018-08-30T10:09:53.705Z,1016.89
2018-08-30T10:10:53.657Z,1016.89
2018-08-30T10:11:53.609Z,1016.91
2018-08-30T10:12:53.570Z,1016.90
2018-08-30T10:13:53.528Z,1016.94
2018-08-30T10:14:53.492Z,1017.00
2018-08-30T10:15:53.475Z,1016.95
2018-08-30T10:16:53.400Z,1017.01
2018-08-30T10:17:53.358Z,1017.00
2018-08-30T10:18:53.316Z,1016.98
2018-08-30T10:19:53.272Z,1016.95
2018-08-30T10:20:53.234Z,1016.96
2018-08-30T10:21:53.179Z,1016.92
2018-08-30T10:22:53.147Z,1016.97
2018-08-30T10:23:53.108Z,1017.00
2018-08-30T10:24:53.063Z,1016.94
2018-08-30T10:25:53.076Z,1016.94
2018-08-30T10:26:52.980Z,1016.97
2018-08-30T10:27:52.935Z,1017.02
2018-08-30T10:28:52.888Z,1016.92
2018-08-30T10:29:52.855Z,1017.02
2018-08-30T10:30:52.808Z,1016.96
2018-08-30T10:31:52.764Z,1016.95
2018-08-30T10:32:52.720Z,1016.95
2018-08-30T10:33:52.681Z,1016.96
2018-08-30T10:34:52.637Z,1016.91
2018-08-30T10:35:52.619Z,1016.94
2018-08-30T10:36:52.574Z,1016.94
2018-08-30T10:37:52.515Z,1016.97
2018-08-30T10:38:52.480Z,1016.97
2018-08-30T10:39:52.466Z,1016.98
2018-08-30T10:40:52.375Z,1016.98
2018-08-30T10:41:52.340Z,1016.97
2018-08-30T10:42:52.351Z,1016.97
2018-08-30T10:43:52.286Z,1016.96
2018-08-30T10:44:52.215Z,1016.96
2018-08-30T10:45:52.177Z,1016.93
2018-08-30T10:46:52.133Z,1016.97
2018-08-30T10:47:52.081Z,1016.93
2018-08-30T10:48:52.047Z,1016.92
2018-08-30T10:49:52.048Z,1016.91
2018-08-30T10:50:51.960Z,1016.92
2018-08-30T10:51:51.919Z,1016.92
2018-08-30T10:52:51.881Z,1016.99
2018-08-30T10:53:51.837Z,1016.92
2018-08-30T10:54:51.792Z,1016.93
2018-08-30T10:55:51.757Z,1016.93
2018-08-30T10:56:51.709Z,1016.95
2018-08-30T10:57:51.668Z,1016.91
2018-08-30T10:58:51.627Z,1016.98
2018-08-30T10:59:51.577Z,1016.93
2018-08-30T11:00:51.541Z,1016.92
2018-08-30T11:01:51.526Z,1016.97
2018-08-30T11:02:51.455Z,1017.05
2018-08-30T11:03:51.446Z,1017.00
2018-08-30T11:04:51.376Z,1017.03
2018-08-30T11:05:51.325Z,1017.07
2018-08-30T11:06:51.297Z,1017.02
2018-08-30T11:07:51.256Z,1016.94
2018-08-30T11:08:51.199Z,1016.97
2018-08-30T11:09:51.196Z,1017.00
2018-08-30T11:10:51.113Z,1016.97
2018-08-30T11:11:51.099Z,1017.06
2018-08-30T11:12:51.087Z,1017.06
2018-08-30T11:13:50.990Z,1017.07
2018-08-30T11:14:50.949Z,1017.14
2018-08-30T11:15:50.904Z,1017.06
2018-08-30T11:16:50.866Z,1017.06
2018-08-30T11:17:50.821Z,1017.04
2018-08-30T11:18:50.780Z,1017.04
2018-08-30T11:19:50.741Z,1017.07
2018-08-30T11:20:50.684Z,1017.07
2018-08-30T11:21:50.648Z,1017.08
2018-08-30T11:22:50.606Z,1017.10
2018-08-30T11:23:50.565Z,1017.08
2018-08-30T11:24:50.526Z,1017.08
2018-08-30T11:25:50.530Z,1017.07
2018-08-30T11:26:50.437Z,1017.11
2018-08-30T11:27:50.397Z,1017.09
2018-08-30T11:28:50.352Z,1017.08
2018-08-30T11:29:50.311Z,1017.06
2018-08-30T11:30:50.269Z,1017.04
2018-08-30T11:31:50.231Z,1017.08
2018-08-30T11:32:50.186Z,1017.06
2018-08-30T11:33:50.142Z,1017.12
2018-08-30T11:34:50.100Z,1017.05
2018-08-30T11:35:50.059Z,1017.11
2018-08-30T11:36:50.017Z,1017.08
2018-08-30T11:37:49.973Z,1017.03
2018-08-30T11:38:49.936Z,1017.04
2018-08-30T11:39:49.889Z,1017.10
2018-08-30T11:40:49.847Z,1017.05
2018-08-30T11:41:49.903Z,1017.05
2018-08-30T11:42:49.761Z,1017.02
2018-08-30T11:43:49.726Z,1017.08
2018-08-30T11:44:49.682Z,1017.11
2018-08-30T11:45:49.628Z,1017.08
2018-08-30T11:46:49.599Z,1017.18
2018-08-30T11:47:49.557Z,1017.12
2018-08-30T11:48:49.516Z,1017.15
2018-08-30T11:49:49.474Z,1017.12
2018-08-30T11:50:49.434Z,1017.13
2018-08-30T11:51:49.391Z,1017.15
2018-08-30T11:52:49.455Z,1017.13
2018-08-30T11:53:49.302Z,1017.13
2018-08-30T11:54:49.248Z,1017.14
2018-08-30T11:55:49.210Z,1017.16
2018-08-30T11:56:49.167Z,1017.14
2018-08-30T11:57:49.123Z,1017.08
2018-08-30T11:58:49.090Z,1017.13
2018-08-30T11:59:49.072Z,1017.13
2018-08-30T12:00:49.057Z,1017.17
2018-08-30T12:01:49.129Z,1017.11
2018-08-30T12:02:48.918Z,1017.13
2018-08-30T12:03:48.874Z,1017.12
2018-08-30T12:04:48.834Z,1017.11